Data for 07/14/2015

Time Sea-Level Adjusted Pressure Absolute Pressure Temperature Relative Humidity Dew Point   
(mb) (inHg) (mb) (inHg) (C) (F) (%) (C) (F)
00:05 1021 30.15 850 25.1 14.3 57.7 77 10.4 50.7
00:10 1021 30.15 850 25.1 14.2 57.5 77 10.3 50.6
00:15 1021 30.15 850 25.1 14.2 57.5 76 10.1 50.2
00:20 1021 30.15 850 25.1 14.3 57.7 77 10.2 50.4
00:25 1021 30.15 850 25.1 14.4 58 76 10.3 50.6
00:30 1021 30.15 850 25.1 14.4 57.8 76 10.2 50.4
00:35 1021 30.15 850 25.1 14.3 57.7 76 10.2 50.4
00:40 1021 30.15 850 25.1 14.3 57.8 76 10.2 50.3
00:45 1021 30.15 850 25.1 14.3 57.7 76 10.2 50.4
00:50 1021 30.15 850 25.1 14.2 57.6 76 10.1 50.2
00:55 1021 30.15 850 25.1 14.1 57.5 76 10.1 50.2
01:00 1021 30.15 850 25.1 14.1 57.3 77 10.1 50.2
01:05 1021 30.15 850 25.1 13.9 57.1 77 10.1 50.2
01:10 1021 30.15 850 25.1 13.9 56.9 77 10 50
01:15 1021 30.15 850 25.1 13.7 56.6 79 10.1 50.1
01:20 1021 30.15 850 25.1 13.2 55.8 80 9.9 49.9
01:25 1021 30.15 850 25.1 13 55.4 81 9.8 49.6
01:30 1021 30.15 850 25.1 12.9 55.1 81 9.6 49.4
01:35 1021 30.15 850 25.1 12.9 55.2 80 9.7 49.4
01:40 1021 30.15 850 25.1 12.5 54.4 84 9.9 49.9
01:45 1021 30.15 850 25.1 12.1 53.8 85 9.7 49.4
01:50 1021 30.15 850 25.1 11.8 53.3 86 9.6 49.2
01:55 1021 30.15 850 25.1 11.6 52.9 87 9.5 49.1
02:00 1021 30.15 850 25.1 11.6 52.9 86 9.3 48.8
02:05 1021 30.15 850 25.1 11.6 53 85 9.1 48.5
02:10 1021 30.15 850 25.1 11.9 53.4 83 9 48.3
02:15 1021 30.15 850 25.1 11.9 53.4 83 9 48.3
02:20 1021 30.15 850 25.1 11.8 53.2 82 8.9 48.1
02:25 1021 30.15 850 25.1 11.7 53.1 83 8.9 48.1
02:30 1021 30.15 850 25.1 11.8 53.2 83 9 48.3
02:35 1021 30.15 850 25.1 11.6 52.9 84 9 48.2
02:40 1021 30.15 850 25.1 11.5 52.8 84 9 48.2
02:45 1021 30.15 850 25.1 11.5 52.6 85 9 48.2
02:50 1020 30.12 850 25.1 11.4 52.6 85 8.9 48.1
02:55 1020 30.12 850 25.1 11.5 52.7 84 9 48.1
03:00 1020 30.12 850 25.1 11.5 52.7 84 8.8 47.9
03:05 1020 30.12 850 25.1 11.3 52.4 84 8.7 47.7
03:10 1020 30.12 850 25.1 11.3 52.3 84 8.7 47.7
03:15 1020 30.12 850 25.1 11.3 52.3 84 8.7 47.7
03:20 1020 30.12 849 25.07 11.2 52.2 85 8.7 47.7
03:25 1020 30.12 849 25.07 11.1 52 85 8.7 47.7
03:30 1020 30.12 849 25.07 11.1 52 84 8.5 47.4
03:35 1020 30.12 849 25.07 11.1 52 83 8.3 46.9
03:40 1020 30.12 849 25.07 11.1 52 82 8.2 46.8
03:45 1020 30.12 849 25.07 11.2 52.1 81 8.1 46.6
03:50 1020 30.12 849 25.07 11.3 52.3 81 8.2 46.7
03:55 1020 30.12 849 25.07 11.4 52.4 81 8.2 46.7
04:00 1020 30.12 849 25.07 11.5 52.7 80 8.2 46.7
04:05 1020 30.12 849 25.07 11.5 52.6 80 8.1 46.7
04:10 1020 30.12 850 25.1 11.4 52.5 81 8.2 46.8
04:15 1020 30.12 849 25.07 11.3 52.3 82 8.3 46.9
04:20 1020 30.12 849 25.07 11.2 52.2 82 8.3 46.9
04:25 1020 30.12 849 25.07 11.2 52.2 82 8.3 46.9
04:30 1020 30.12 849 25.07 11.2 52.1 82 8.3 46.9
04:35 1020 30.12 849 25.07 11.1 52.1 82 8.2 46.8
04:40 1020 30.12 849 25.07 11 51.8 83 8.3 46.9
04:45 1020 30.12 850 25.1 10.9 51.5 83 8.2 46.7
04:50 1020 30.12 850 25.1 10.8 51.4 84 8.2 46.7
04:55 1020 30.12 850 25.1 10.9 51.6 83 8.1 46.5
05:00 1020 30.12 850 25.1 11.1 52 82 8.2 46.7
05:05 1020 30.12 850 25.1 11.2 52.2 82 8.2 46.8
05:10 1020 30.12 850 25.1 11.2 52.2 81 8.2 46.8
05:15 1020 30.12 850 25.1 11.3 52.3 81 8 46.5
05:20 1020 30.12 850 25.1 11.1 52 80 7.8 46
05:25 1020 30.12 850 25.1 11.1 51.9 80 7.7 45.8
05:30 1020 30.12 850 25.1 10.9 51.7 79 7.4 45.3
05:35 1020 30.12 850 25.1 11.1 52 78 7.4 45.3
05:40 1020 30.12 850 25.1 11.2 52.2 77 7.4 45.4
05:45 1021 30.15 850 25.1 11.2 52.2 77 7.4 45.4
05:50 1021 30.15 850 25.1 11.3 52.4 76 7.3 45.2
05:55 1021 30.15 850 25.1 11.5 52.7 76 7.5 45.5
06:00 1021 30.15 850 25.1 11.7 53 75 7.5 45.5
06:05 1021 30.15 850 25.1 11.9 53.4 75 7.7 45.8
06:10 1021 30.15 850 25.1 11.9 53.4 75 7.6 45.6
06:15 1021 30.15 850 25.1 12.2 53.9 73 7.6 45.6
06:20 1021 30.15 850 25.1 12.6 54.7 72 7.7 45.9
06:25 1021 30.15 850 25.1 13.1 55.5 70 7.8 46.1
06:30 1021 30.15 850 25.1 13.2 55.8 71 8.2 46.8
06:35 1021 30.15 850 25.1 13.4 56.1 70 8.2 46.7
06:40 1021 30.15 850 25.1 13.8 56.8 68 8.1 46.6
06:45 1021 30.15 850 25.1 14.3 57.7 67 8.4 47
06:50 1021 30.15 850 25.1 14.8 58.6 64 8.2 46.7
06:55 1021 30.15 850 25.1 15.1 59.1 65 8.5 47.3
07:00 1021 30.15 850 25.1 15.4 59.6 63 8.5 47.3
07:05 1021 30.15 850 25.1 15.4 59.7 62 8.2 46.8
07:10 1021 30.15 850 25.1 15.5 60 61 8 46.5
07:15 1021 30.15 850 25.1 16.2 61.1 60 8.6 47.4
07:20 1021 30.15 850 25.1 16.5 61.7 60 8.7 47.7
07:25 1021 30.15 850 25.1 16.9 62.3 58 8.6 47.4
07:30 1021 30.15 850 25.1 17.4 63.2 56 8.6 47.5
07:35 1021 30.15 850 25.1 17.6 63.7 56 8.8 47.8
07:40 1021 30.15 850 25.1 17.1 62.7 58 8.9 48.1
07:45 1021 30.15 850 25.1 17.6 63.6 54 8.3 47
07:50 1021 30.15 850 25.1 17.5 63.4 57 8.9 48
07:55 1021 30.15 850 25.1 17.2 62.9 55 8.3 46.9
08:00 1021 30.15 850 25.1 17.4 63.3 57 8.9 48
08:05 1021 30.15 850 25.1 16.8 62.3 58 8.5 47.3
08:10 1021 30.15 850 25.1 17.3 63.1 56 8.5 47.3
08:15 1021 30.15 850 25.1 18.4 65 53 8.8 47.9
08:20 1021 30.15 850 25.1 18.8 65.8 52 8.8 47.9
08:25 1021 30.15 850 25.1 19.1 66.4 52 9.1 48.4
08:30 1021 30.15 850 25.1 19.5 67.2 51 9.2 48.6
08:35 1021 30.15 850 25.1 18.8 65.8 55 9.6 49.3
08:40 1021 30.15 850 25.1 18.3 64.9 57 9.8 49.7
08:45 1021 30.15 850 25.1 17.9 64.2 56 9.1 48.3
08:50 1021 30.15 850 25.1 18.2 64.7 57 9.5 49.1
08:55 1021 30.15 850 25.1 18.6 65.4 53 9.1 48.3
09:00 1021 30.15 850 25.1 19.2 66.6 53 9.7 49.4
09:05 1021 30.15 850 25.1 18.7 65.7 55 9.6 49.3
09:10 1021 30.15 850 25.1 19 66.2 53 9.4 49
09:15 1021 30.15 850 25.1 18.4 65.1 58 10 50.1
09:20 1021 30.15 850 25.1 18.9 66 55 9.7 49.4
09:25 1021 30.15 850 25.1 19.5 67 53 9.8 49.6
09:30 1021 30.15 850 25.1 19.4 66.9 55 10.2 50.4
09:35 1021 30.15 850 25.1 20.1 68.2 49 9.3 48.7
09:40 1021 30.15 850 25.1 20.1 68.2 49 9.1 48.4
09:45 1021 30.15 850 25.1 20.6 69.2 48 9.3 48.8
09:50 1021 30.15 850 25.1 20.9 69.5 49 10 50.1
09:55 1021 30.15 850 25.1 19.8 67.6 49 8.9 48
10:00 1021 30.15 850 25.1 20 68.1 47 8.7 47.6
10:05 1021 30.15 850 25.1 20.2 68.3 48 9 48.1
10:10 1021 30.15 850 25.1 19.9 67.9 46 8.2 46.7
10:15 1021 30.15 850 25.1 20.7 69.2 43 8 46.3
10:20 1021 30.15 850 25.1 20.7 69.3 43 7.9 46.3
10:25 1021 30.15 850 25.1 21.2 70.2 44 8.8 47.8
10:30 1021 30.15 850 25.1 21.4 70.6 44 8.9 48.1
10:35 1021 30.15 850 25.1 21.5 70.7 44 8.9 48
10:40 1021 30.15 850 25.1 21.7 71.1 43 8.8 47.8
10:45 1021 30.15 850 25.1 22.3 72.1 42 9.1 48.4
10:50 1021 30.15 850 25.1 22.6 72.6 41 8.9 48.1
10:55 1020 30.12 850 25.1 21.7 71 43 8.8 47.8
11:00 1020 30.12 850 25.1 21.8 71.2 41 8.1 46.6
11:05 1020 30.12 850 25.1 22.4 72.3 40 8.5 47.2
11:10 1020 30.12 850 25.1 22.6 72.8 41 8.9 48.1
11:15 1020 30.12 850 25.1 22.1 71.8 41 8.4 47.1
11:20 1020 30.12 849 25.07 22.7 72.9 40 8.5 47.2
11:25 1020 30.12 849 25.07 22.8 73.1 39 8.5 47.3
11:30 1020 30.12 849 25.07 22 71.5 41 8.4 47.1
11:35 1020 30.12 849 25.07 22.5 72.5 38 7.6 45.7
11:40 1020 30.12 849 25.07 22.7 72.8 38 7.9 46.2
11:45 1020 30.12 849 25.07 22.7 72.9 38 7.9 46.1
11:50 1020 30.12 849 25.07 22.2 72 39 7.9 46.2
11:55 1020 30.12 849 25.07 22.3 72.1 39 7.8 46
12:00 1020 30.12 849 25.07 23.4 74 38 8.3 46.9
12:05 1020 30.12 849 25.07 23.4 74.1 37 8 46.4
12:10 1020 30.12 849 25.07 22.8 73.1 37 7.8 46
12:15 1020 30.12 849 25.07 22.7 72.8 38 7.7 45.8
12:20 1020 30.12 849 25.07 22.8 73.1 39 8.3 46.9
12:25 1020 30.12 849 25.07 23.2 73.7 36 7.3 45.1
12:30 1020 30.12 849 25.07 23.9 74.9 38 8.7 47.7
12:35 1020 30.12 849 25.07 23.2 73.7 36 7.6 45.6
12:40 1020 30.12 849 25.07 23.3 74 36 7.8 46
12:45 1020 30.12 849 25.07 22.6 72.6 39 8 46.4
12:50 1020 30.12 849 25.07 23 73.3 40 8.9 48
12:55 1020 30.12 849 25.07 24.1 75.4 35 7.9 46.3
13:00 1020 30.12 849 25.07 24.2 75.5 36 8.3 46.9
13:05 1020 30.12 849 25.07 24.3 75.7 33 7.3 45.2
13:10 1020 30.12 849 25.07 24.8 76.7 34 8 46.3
13:15 1019 30.09 849 25.07 24.5 76 34 7.7 45.8
13:20 1019 30.09 849 25.07 24.3 75.8 33 7 44.7
13:25 1019 30.09 848 25.04 23.8 74.8 33 6.8 44.2
13:30 1019 30.09 848 25.04 24 75.2 32 6.4 43.5
13:35 1019 30.09 848 25.04 23.9 75 31 6.1 43.1
13:40 1019 30.09 848 25.04 24.9 76.8 29 5.9 42.6
13:45 1019 30.09 848 25.04 25.6 78 28 5.9 42.6
13:50 1019 30.09 848 25.04 26 78.9 28 6.2 43.2
13:55 1019 30.09 848 25.04 26.1 79 27 6 42.8
14:00 1019 30.09 848 25.04 25 77 29 6 42.8
14:05 1019 30.09 848 25.04 25.1 77.2 28 5.8 42.5
14:10 1018 30.06 848 25.04 25.8 78.5 28 6 42.8
14:15 1018 30.06 848 25.04 25.4 77.8 27 5.4 41.7
14:20 1018 30.06 847 25.01 25.1 77.2 27 5.3 41.5
14:25 1018 30.06 848 25.04 25.9 78.6 25 4.7 40.5
14:30 1018 30.06 847 25.01 26.9 80.5 25 5.7 42.2
14:35 1018 30.06 847 25.01 26.6 79.8 25 5.4 41.6
14:40 1018 30.06 847 25.01 26.8 80.3 24 4.7 40.5
14:45 1018 30.06 847 25.01 26.4 79.6 26 5.4 41.7
14:50 1018 30.06 847 25.01 26.8 80.3 23 4.5 40.2
14:55 1018 30.06 847 25.01 26.9 80.4 24 4.9 40.9
15:00 1018 30.06 847 25.01 27.3 81.1 25 6 42.7
15:05 1018 30.06 847 25.01 27.3 81.2 24 5.4 41.8
15:10 1018 30.06 847 25.01 26.9 80.4 24 4.9 40.8
15:15 1018 30.06 847 25.01 27 80.5 25 5.4 41.8
15:20 1018 30.06 847 25.01 26.3 79.3 26 5.8 42.4
15:25 1018 30.06 847 25.01 25.9 78.6 25 4.9 40.7
15:30 1018 30.06 847 25.01 25.5 77.8 26 4.7 40.4
15:35 1018 30.06 847 25.01 25.4 77.7 25 4 39.3
15:40 1018 30.06 847 25.01 25.3 77.5 27 5.1 41.1
15:45 1018 30.06 847 25.01 25 77 26 4.7 40.4
15:50 1018 30.06 847 25.01 25 77 28 5.6 42.1
15:55 1018 30.06 847 25.01 24.7 76.4 28 5.1 41.2
16:00 1018 30.06 847 25.01 24.4 76 29 5.3 41.6
16:05 1018 30.06 847 25.01 24.4 75.9 28 5.1 41.2
16:10 1018 30.06 847 25.01 23.3 73.9 30 5.2 41.4
16:15 1018 30.06 847 25.01 22.5 72.4 29 3.8 38.9
16:20 1018 30.06 847 25.01 22.7 72.8 30 4.5 40.2
16:25 1018 30.06 847 25.01 22.5 72.5 42 9.2 48.5
16:30 1018 30.06 847 25.01 21.2 70.2 40 7.3 45.1
16:35 1018 30.06 847 25.01 20.6 69.2 38 6.1 43
16:40 1018 30.06 847 25.01 21 69.8 48 9.9 49.7
16:45 1018 30.06 847 25.01 20.2 68.4 46 8.4 47.2
16:50 1018 30.06 847 25.01 19.8 67.6 57 11.2 52.2
16:55 1018 30.06 847 25.01 19.6 67.3 55 10.3 50.6
17:00 1018 30.06 847 25.01 19.8 67.6 56 10.8 51.4
17:05 1018 30.06 847 25.01 20.3 68.6 52 10.3 50.5
17:10 1018 30.06 847 25.01 20.7 69.3 47 9.2 48.6
17:15 1018 30.06 847 25.01 21.3 70.3 47 9.6 49.2
17:20 1018 30.06 847 25.01 22 71.6 42 8.6 47.5
17:25 1018 30.06 847 25.01 21.9 71.3 37 6.7 44.1
17:30 1018 30.06 847 25.01 21.8 71.2 39 7.2 45
17:35 1018 30.06 847 25.01 21.7 71 38 6.9 44.5
17:40 1018 30.06 847 25.01 21.7 71 41 8.2 46.7
17:45 1018 30.06 847 25.01 21.7 71.1 38 7.1 44.7
17:50 1018 30.06 847 25.01 21.7 71.1 34 5.3 41.5
17:55 1018 30.06 847 25.01 21.8 71.2 33 4.9 40.8
18:00 1018 30.06 847 25.01 22 71.6 33 5.1 41.1
18:05 1018 30.06 847 25.01 21.8 71.3 32 4.7 40.4
18:10 1018 30.06 847 25.01 22 71.6 32 4.8 40.7
18:15 1018 30.06 847 25.01 21.9 71.4 35 5.9 42.7
18:20 1018 30.06 847 25.01 21.3 70.3 39 7 44.6
18:25 1018 30.06 848 25.04 20.8 69.4 41 7.3 45.1
18:30 1019 30.09 848 25.04 20.5 68.8 44 8 46.4
18:35 1019 30.09 848 25.04 20.3 68.5 46 8.3 47
18:40 1019 30.09 848 25.04 20.1 68.1 47 8.5 47.4
18:45 1019 30.09 848 25.04 19.9 67.7 44 7.5 45.4
18:50 1019 30.09 848 25.04 19.8 67.6 45 7.5 45.5
18:55 1019 30.09 849 25.07 19.7 67.4 44 7.2 45
19:00 1020 30.12 849 25.07 19.5 67.1 43 6.8 44.3
19:05 1020 30.12 849 25.07 19.4 67 44 7 44.6
19:10 1020 30.12 849 25.07 19.4 66.9 47 8 46.4
19:15 1020 30.12 849 25.07 19.2 66.6 49 8.3 46.9
19:20 1020 30.12 849 25.07 19.1 66.4 48 8.1 46.6
19:25 1020 30.12 849 25.07 19 66.3 49 8.2 46.8
19:30 1020 30.12 849 25.07 18.8 65.9 50 8.4 47.1
19:35 1020 30.12 849 25.07 18.6 65.5 50 8 46.4
19:40 1020 30.12 849 25.07 18.3 65 53 8.8 47.8
19:45 1020 30.12 849 25.07 17.9 64.3 53 8.4 47.2
19:50 1020 30.12 849 25.07 17.6 63.6 57 9 48.3
19:55 1020 30.12 849 25.07 17.3 63.2 59 9.4 49
20:00 1020 30.12 849 25.07 17 62.5 60 9.3 48.7
20:05 1020 30.12 849 25.07 17.1 62.7 58 9 48.1
20:10 1020 30.12 849 25.07 17.1 62.7 60 9.3 48.8
20:15 1020 30.12 849 25.07 17 62.7 60 9.2 48.6
20:20 1020 30.12 849 25.07 16.9 62.4 61 9.4 48.9
20:25 1020 30.12 849 25.07 16.7 62.1 62 9.5 49
20:30 1020 30.12 849 25.07 16.8 62.2 62 9.6 49.2
20:35 1020 30.12 849 25.07 16.9 62.5 60 9.3 48.7
20:40 1020 30.12 849 25.07 16.9 62.5 62 9.8 49.6
20:45 1020 30.12 849 25.07 17.1 62.8 62 9.9 49.8
20:50 1020 30.12 849 25.07 17 62.6 63 10 50
20:55 1020 30.12 849 25.07 16.6 61.9 63 9.7 49.5
21:00 1020 30.12 849 25.07 16.5 61.6 64 9.7 49.4
21:05 1020 30.12 849 25.07 16.5 61.6 65 9.9 49.8
21:10 1020 30.12 849 25.07 16.3 61.4 65 9.8 49.7
21:15 1020 30.12 849 25.07 16.2 61.2 67 10.3 50.5
21:20 1020 30.12 849 25.07 15.8 60.4 71 10.7 51.2
21:25 1020 30.12 849 25.07 15.2 59.3 74 10.6 51
21:30 1020 30.12 849 25.07 14.9 58.7 73 10.2 50.3
21:35 1020 30.12 849 25.07 14.8 58.6 71 9.7 49.5
21:40 1020 30.12 849 25.07 14.8 58.6 73 10.1 50.2
21:45 1020 30.12 849 25.07 14.6 58.3 74 10.2 50.3
21:50 1020 30.12 849 25.07 14.7 58.4 72 9.8 49.7
21:55 1020 30.12 849 25.07 14.9 58.8 72 9.9 49.8
22:00 1020 30.12 849 25.07 14.9 58.8 71 9.7 49.4
22:05 1019 30.09 849 25.07 14.9 58.9 70 9.7 49.4
22:10 1019 30.09 849 25.07 14.9 58.8 72 9.9 49.8
22:15 1019 30.09 849 25.07 14.9 58.8 70 9.5 49
22:20 1019 30.09 849 25.07 15 58.9 70 9.6 49.2
22:25 1019 30.09 848 25.04 14.8 58.7 70 9.5 49.1
22:30 1019 30.09 848 25.04 14.7 58.5 70 9.5 49
22:35 1019 30.09 848 25.04 14.6 58.2 71 9.5 49.1
22:40 1019 30.09 848 25.04 14.4 57.9 72 9.4 48.8
22:45 1019 30.09 848 25.04 14.2 57.6 72 9.4 48.8
22:50 1019 30.09 848 25.04 14.2 57.5 72 9.3 48.7
22:55 1019 30.09 848 25.04 14.3 57.8 71 9.2 48.6
23:00 1019 30.09 848 25.04 14.4 58 68 8.8 47.8
23:05 1019 30.09 848 25.04 14.6 58.4 67 8.6 47.4
23:10 1019 30.09 848 25.04 14.7 58.5 67 8.7 47.7
23:15 1019 30.09 848 25.04 14.5 58.1 67 8.6 47.5
23:20 1019 30.09 848 25.04 14.6 58.2 67 8.5 47.3
23:25 1019 30.09 848 25.04 14.5 58.1 65 8.1 46.5
23:30 1019 30.09 848 25.04 14.7 58.4 66 8.4 47.1
23:35 1019 30.09 848 25.04 14.6 58.2 65 8.1 46.5
23:40 1019 30.09 848 25.04 14.7 58.5 65 8.2 46.7
23:45 1019 30.09 848 25.04 14.6 58.3 64 7.9 46.2
23:50 1019 30.09 848 25.04 14.7 58.4 64 8.1 46.5
23:55 1019 30.09 848 25.04 14.7 58.5 63 7.8 46
24:00 1019 30.09 848 25.04 14.6 58.3 65 8.1 46.6